Time;durP1;ratioP1;P1;durP2;ratioP2;P2;SDS_P1;SDS_P2;PMS_P1;PMS_P2;Temp;Humidity;BMP_temperature;BMP_pressure;BME280_temperature;BME280_humidity;BME280_pressure;Samples;Min_cycle;Max_cycle;Signal;HPM_P1;HPM_P2
2022/04/22 00:00:18;;;;;;;;;;;22.50;44.40;;;;;;682573;29;1201;-90
2022/04/22 00:00:39;;;;;;;;;;;22.50;43.90;;;;;;683044;28;870;-87
2022/04/22 00:00:59;;;;;;;;;;;22.50;45.00;;;;;;685446;28;815;-86
2022/04/22 00:01:20;;;;;;;;;;;22.50;43.40;;;;;;685275;28;883;-89
2022/04/22 00:01:41;;;;;;;;;;;22.50;44.00;;;;;;682665;29;1336;-87
2022/04/22 00:02:01;;;;;;;;;;;22.60;44.00;;;;;;682884;28;1138;-89
2022/04/22 00:02:22;;;;;;;;;;;22.50;43.60;;;;;;685339;28;1358;-89
2022/04/22 00:02:42;;;;;;;;;;;22.50;42.50;;;;;;685258;28;989;-88
2022/04/22 00:03:04;;;;;;;;;;;22.60;42.70;;;;;;682710;29;1272;-88
2022/04/22 00:03:24;;;;;;;;;;;22.50;42.50;;;;;;683094;28;886;-89
2022/04/22 00:03:46;;;;;;;;;;;22.50;43.30;;;;;;685496;28;1052;-85
2022/04/22 00:04:07;;;;;;;;;;;22.50;43.80;;;;;;682574;29;1206;-89
2022/04/22 00:04:27;;;;;;;;;;;22.50;43.40;;;;;;682523;29;1336;-88
2022/04/22 00:04:48;;;;;;;;;;;22.50;43.30;;;;;;683266;28;1230;-88
2022/04/22 00:05:08;;;;;;;;;;;22.50;42.50;;;;;;682755;29;1254;-87
2022/04/22 00:05:30;;;;;;;;;;;22.50;43.60;;;;;;682648;29;811;-89
2022/04/22 00:05:50;;;;;;;;;;;22.50;43.00;;;;;;680415;29;1381;-89
2022/04/22 00:06:11;;;;;;;;;;;22.50;43.80;;;;;;682752;29;1340;-88
2022/04/22 00:06:32;;;;;;;;;;;22.50;43.10;;;;;;679887;29;1395;-89
2022/04/22 00:06:52;;;;;;;;;;;22.50;42.60;;;;;;677835;29;1392;-87
2022/04/22 00:07:13;;;;;;;;;;;22.50;42.60;;;;;;677399;29;1357;-88
2022/04/22 00:07:33;;;;;;;;;;;22.50;43.50;;;;;;677599;29;788;-88
2022/04/22 00:07:54;;;;;;;;;;;22.50;43.10;;;;;;675101;29;1968;-87
2022/04/22 00:08:14;;;;;;;;;;;22.50;42.40;;;;;;675048;29;1099;-88
2022/04/22 00:08:35;;;;;;;;;;;22.50;42.20;;;;;;679294;29;800;-88
2022/04/22 00:08:56;;;;;;;;;;;22.50;42.70;;;;;;680483;29;1198;-87
2022/04/22 00:09:16;;;;;;;;;;;22.50;42.60;;;;;;679976;29;1445;-87
2022/04/22 00:09:37;;;;;;;;;;;22.50;42.40;;;;;;679950;29;1211;-88
2022/04/22 00:09:58;;;;;;;;;;;22.50;42.40;;;;;;680915;29;954;-88
2022/04/22 00:10:19;;;;;;;;;;;22.50;42.50;;;;;;680377;29;1303;-88
2022/04/22 00:11:29;;;;;;;;;;;22.50;42.80;;;;;;680009;29;1277;-88
2022/04/22 00:11:29;;;;;;;;;;;22.50;42.90;;;;;;680347;29;859;-88
2022/04/22 00:11:49;;;;;;;;;;;22.50;43.50;;;;;;682873;29;1342;-89
2022/04/22 00:12:10;;;;;;;;;;;22.50;43.40;;;;;;682909;29;1201;-88
2022/04/22 00:12:31;;;;;;;;;;;22.50;42.60;;;;;;681321;29;1199;-86
2022/04/22 00:12:51;;;;;;;;;;;22.50;43.40;;;;;;682718;29;1162;-87
2022/04/22 00:13:12;;;;;;;;;;;22.50;44.00;;;;;;679785;29;1249;-88
2022/04/22 00:13:32;;;;;;;;;;;22.50;43.10;;;;;;681068;28;1148;-88
2022/04/22 00:13:54;;;;;;;;;;;22.50;42.70;;;;;;680604;29;1223;-88
2022/04/22 00:14:15;;;;;;;;;;;22.50;42.50;;;;;;680395;29;1262;-88
2022/04/22 00:14:35;;;;;;;;;;;22.40;43.60;;;;;;678084;29;1329;-87
2022/04/22 00:14:56;;;;;;;;;;;22.40;44.50;;;;;;677858;29;1228;-87
2022/04/22 00:15:17;;;;;;;;;;;19.40;41.50;;;;;;677378;29;1234;-87
2022/04/22 00:15:37;;;;;;;;;;;22.50;43.00;;;;;;677936;29;1245;-87
2022/04/22 00:15:58;;;;;;;;;;;22.50;43.10;;;;;;680348;29;899;-87
2022/04/22 00:16:18;;;;;;;;;;;22.50;43.40;;;;;;682804;29;838;-87
2022/04/22 00:16:39;;;;;;;;;;;22.50;43.40;;;;;;682026;29;1102;-88
2022/04/22 00:17:00;;;;;;;;;;;22.50;42.50;;;;;;682720;28;1199;-88
2022/04/22 00:17:21;;;;;;;;;;;22.50;43.30;;;;;;683320;28;1366;-89
2022/04/22 00:17:42;;;;;;;;;;;22.50;43.20;;;;;;688145;28;1347;-88
2022/04/22 00:18:02;;;;;;;;;;;22.40;43.20;;;;;;687553;28;1348;-89
2022/04/22 00:18:23;;;;;;;;;;;22.50;43.70;;;;;;687774;28;1306;-87
2022/04/22 00:18:44;;;;;;;;;;;22.40;43.80;;;;;;689532;28;1239;-86
2022/04/22 00:19:05;;;;;;;;;;;22.40;43.50;;;;;;688107;28;795;-88
2022/04/22 00:19:25;;;;;;;;;;;22.40;43.40;;;;;;685317;28;1206;-88
2022/04/22 00:19:46;;;;;;;;;;;22.40;44.60;;;;;;682651;29;1234;-89
2022/04/22 00:20:07;;;;;;;;;;;22.40;44.00;;;;;;682723;29;1332;-87
2022/04/22 00:20:28;;;;;;;;;;;22.40;42.30;;;;;;680294;29;1422;-88
2022/04/22 00:20:49;;;;;;;;;;;22.50;42.50;;;;;;680087;29;1139;-87
2022/04/22 00:21:10;;;;;;;;;;;22.50;44.80;;;;;;680462;29;1233;-89
2022/04/22 00:21:30;;;;;;;;;;;22.40;42.50;;;;;;683246;28;1287;-88
2022/04/22 00:21:53;;;;;;;;;;;22.40;42.90;;;;;;685341;28;1322;-89
2022/04/22 00:22:13;;;;;;;;;;;22.40;43.70;;;;;;682695;29;1218;-87
2022/04/22 00:22:36;;;;;;;;;;;22.50;43.00;;;;;;682609;29;1162;-88
2022/04/22 00:22:56;;;;;;;;;;;22.40;42.50;;;;;;682913;29;1017;-88
2022/04/22 00:23:17;;;;;;;;;;;22.40;43.80;;;;;;683504;28;1230;-88
2022/04/22 00:23:38;;;;;;;;;;;22.40;43.60;;;;;;682640;29;1241;-88
2022/04/22 00:23:58;;;;;;;;;;;22.50;43.00;;;;;;680779;29;1108;-89
2022/04/22 00:24:19;;;;;;;;;;;22.40;43.50;;;;;;682662;29;898;-88
2022/04/22 00:24:39;;;;;;;;;;;22.40;44.90;;;;;;682296;29;1229;-89
2022/04/22 00:25:00;;;;;;;;;;;22.40;43.30;;;;;;680414;29;1213;-87
2022/04/22 00:25:20;;;;;;;;;;;22.40;44.40;;;;;;680118;29;1214;-89
2022/04/22 00:25:41;;;;;;;;;;;22.40;42.80;;;;;;680345;29;1237;-89
2022/04/22 00:26:02;;;;;;;;;;;22.40;42.80;;;;;;680216;29;1476;-90
2022/04/22 00:26:22;;;;;;;;;;;22.50;44.70;;;;;;680294;29;1260;-88
2022/04/22 00:26:43;;;;;;;;;;;22.50;43.80;;;;;;680278;29;1384;-87
2022/04/22 00:27:03;;;;;;;;;;;22.40;42.90;;;;;;682540;29;1363;-88
2022/04/22 00:27:24;;;;;;;;;;;22.40;43.80;;;;;;680339;29;855;-89
2022/04/22 00:27:45;;;;;;;;;;;22.40;43.70;;;;;;682621;29;1911;-89
2022/04/22 00:28:06;;;;;;;;;;;22.40;43.10;;;;;;680473;29;1337;-89
2022/04/22 00:28:27;;;;;;;;;;;22.40;43.00;;;;;;680952;28;1308;-89
2022/04/22 00:28:48;;;;;;;;;;;22.50;42.80;;;;;;682640;29;1198;-88
2022/04/22 00:29:08;;;;;;;;;;;22.40;42.70;;;;;;682921;29;1413;-88
2022/04/22 00:29:29;;;;;;;;;;;22.40;43.30;;;;;;683168;28;804;-86
2022/04/22 00:29:49;;;;;;;;;;;22.40;43.00;;;;;;685571;28;1319;-87
2022/04/22 00:30:11;;;;;;;;;;;22.40;44.50;;;;;;683001;28;1097;-88
2022/04/22 00:30:31;;;;;;;;;;;22.40;43.00;;;;;;682803;29;1283;-87
2022/04/22 00:30:52;;;;;;;;;;;22.40;43.50;;;;;;680633;29;1072;-88
2022/04/22 00:31:13;;;;;;;;;;;22.40;44.20;;;;;;680284;29;1271;-89
2022/04/22 00:31:34;;;;;;;;;;;22.40;42.60;;;;;;680319;29;1316;-88
2022/04/22 00:31:54;;;;;;;;;;;22.50;45.30;;;;;;680767;29;1036;-89
2022/04/22 00:32:15;;;;;;;;;;;22.40;44.90;;;;;;683273;29;1220;-88
2022/04/22 00:32:36;;;;;;;;;;;22.40;44.20;;;;;;682162;28;1389;-88
2022/04/22 00:32:56;;;;;;;;;;;22.50;44.00;;;;;;685438;28;1278;-89
2022/04/22 00:33:17;;;;;;;;;;;22.40;45.30;;;;;;685653;28;902;-88
2022/04/22 00:33:38;;;;;;;;;;;22.50;44.70;;;;;;682748;29;1360;-84
2022/04/22 00:33:58;;;;;;;;;;;22.40;44.20;;;;;;680208;29;1418;-88
2022/04/22 00:34:19;;;;;;;;;;;22.40;44.70;;;;;;680765;29;1137;-87
2022/04/22 00:34:39;;;;;;;;;;;22.40;45.50;;;;;;680595;29;1128;-87
2022/04/22 00:35:01;;;;;;;;;;;22.40;43.80;;;;;;682856;29;898;-89
2022/04/22 00:35:21;;;;;;;;;;;22.40;42.50;;;;;;680235;29;1202;-87
2022/04/22 00:35:42;;;;;;;;;;;22.40;44.30;;;;;;677929;29;1195;-87
2022/04/22 00:36:03;;;;;;;;;;;22.40;42.50;;;;;;682769;29;1315;-89
2022/04/22 00:36:24;;;;;;;;;;;22.40;43.20;;;;;;683392;28;1200;-86
2022/04/22 00:36:44;;;;;;;;;;;22.40;44.00;;;;;;685648;28;879;-88
2022/04/22 00:37:05;;;;;;;;;;;22.40;43.20;;;;;;685182;28;1391;-87
2022/04/22 00:37:25;;;;;;;;;;;22.40;42.80;;;;;;683649;28;847;-88
2022/04/22 00:37:47;;;;;;;;;;;22.40;42.70;;;;;;685078;28;1236;-87
2022/04/22 00:38:08;;;;;;;;;;;22.40;43.50;;;;;;685802;28;870;-88
2022/04/22 00:38:29;;;;;;;;;;;22.40;42.80;;;;;;685705;28;858;-88
2022/04/22 00:38:49;;;;;;;;;;;22.40;43.00;;;;;;685812;28;1519;-88
2022/04/22 00:39:10;;;;;;;;;;;22.40;43.20;;;;;;685437;28;1259;-89
2022/04/22 00:39:30;;;;;;;;;;;22.40;43.30;;;;;;683215;28;1346;-88
2022/04/22 00:39:51;;;;;;;;;;;22.40;42.80;;;;;;685355;28;1249;-88
2022/04/22 00:40:12;;;;;;;;;;;22.40;42.70;;;;;;685423;28;1283;-87
2022/04/22 00:40:32;;;;;;;;;;;22.40;42.70;;;;;;685521;28;1122;-88
2022/04/22 00:40:55;;;;;;;;;;;22.50;43.30;;;;;;682696;29;1335;-88
2022/04/22 00:41:16;;;;;;;;;;;22.40;42.90;;;;;;682894;29;906;-88
2022/04/22 00:41:36;;;;;;;;;;;21.60;44.10;;;;;;683253;28;1194;-86
2022/04/22 00:41:57;;;;;;;;;;;22.50;44.40;;;;;;685695;28;854;-87
2022/04/22 00:42:17;;;;;;;;;;;22.40;44.00;;;;;;683348;28;1475;-87
2022/04/22 00:42:39;;;;;;;;;;;22.40;43.20;;;;;;686268;28;906;-89
2022/04/22 00:43:12;;;;;;;;;;;22.40;42.70;;;;;;688182;28;1246;-88
2022/04/22 00:43:44;;;;;;;;;;;22.40;42.60;;;;;;683598;28;1247;-88
2022/04/22 00:44:05;;;;;;;;;;;22.40;42.20;;;;;;680828;29;1238;-88
2022/04/22 00:44:26;;;;;;;;;;;22.40;42.30;;;;;;680384;29;1262;-86
2022/04/22 00:44:46;;;;;;;;;;;22.40;43.50;;;;;;681030;29;886;-88
2022/04/22 00:45:08;;;;;;;;;;;22.40;43.40;;;;;;680255;29;1314;-88
2022/04/22 00:45:28;;;;;;;;;;;22.40;42.60;;;;;;677808;29;1235;-88
2022/04/22 00:45:49;;;;;;;;;;;22.40;44.20;;;;;;678025;29;1226;-88
2022/04/22 00:46:10;;;;;;;;;;;22.40;42.60;;;;;;677822;29;1267;-90
2022/04/22 00:46:31;;;;;;;;;;;22.40;42.20;;;;;;677790;29;1301;-88
2022/04/22 00:46:52;;;;;;;;;;;22.40;43.70;;;;;;678640;29;1199;-87
2022/04/22 00:47:13;;;;;;;;;;;22.40;43.20;;;;;;680565;29;1344;-89
2022/04/22 00:47:34;;;;;;;;;;;22.40;42.00;;;;;;680029;29;1235;-88
2022/04/22 00:47:55;;;;;;;;;;;21.90;42.30;;;;;;678322;29;1894;-88
2022/04/22 00:48:16;;;;;;;;;;;22.40;43.00;;;;;;682090;29;1143;-88
2022/04/22 00:48:37;;;;;;;;;;;22.30;44.10;;;;;;685528;28;1326;-88
2022/04/22 00:48:58;;;;;;;;;;;22.40;42.40;;;;;;685717;28;1238;-87
2022/04/22 00:49:18;;;;;;;;;;;22.40;43.10;;;;;;683078;29;1158;-88
2022/04/22 00:49:39;;;;;;;;;;;22.40;45.10;;;;;;683522;28;1220;-88
2022/04/22 00:49:59;;;;;;;;;;;22.50;44.30;;;;;;685855;28;811;-88
2022/04/22 00:50:20;;;;;;;;;;;22.40;44.50;;;;;;685727;28;965;-87
2022/04/22 00:50:40;;;;;;;;;;;22.40;42.60;;;;;;683316;28;1279;-88
2022/04/22 00:51:03;;;;;;;;;;;22.40;42.20;;;;;;683087;29;1388;-87
2022/04/22 00:51:23;;;;;;;;;;;22.40;42.50;;;;;;680978;29;1397;-88
2022/04/22 00:51:44;;;;;;;;;;;22.40;42.90;;;;;;680414;29;1234;-87
2022/04/22 00:52:05;;;;;;;;;;;22.50;44.40;;;;;;682964;29;1149;-88
2022/04/22 00:52:26;;;;;;;;;;;19.50;40.90;;;;;;680528;29;1271;-88
2022/04/22 00:52:48;;;;;;;;;;;22.30;42.30;;;;;;680941;29;1316;-88
2022/04/22 00:53:09;;;;;;;;;;;22.40;42.50;;;;;;680099;29;1238;-86
2022/04/22 00:53:31;;;;;;;;;;;22.30;42.20;;;;;;681215;29;1136;-87
2022/04/22 00:53:52;;;;;;;;;;;22.40;42.10;;;;;;683219;29;1001;-88
2022/04/22 00:54:13;;;;;;;;;;;22.40;42.10;;;;;;683146;29;854;-88
2022/04/22 00:54:34;;;;;;;;;;;22.30;42.40;;;;;;684421;28;1404;-85
2022/04/22 00:54:55;;;;;;;;;;;22.50;43.70;;;;;;682646;29;1175;-88
2022/04/22 00:55:17;;;;;;;;;;;22.30;42.30;;;;;;683793;28;1228;-88
2022/04/22 00:55:39;;;;;;;;;;;22.30;42.60;;;;;;685929;28;1194;-88
2022/04/22 00:56:00;;;;;;;;;;;21.90;41.90;;;;;;685724;28;1221;-86
2022/04/22 00:56:21;;;;;;;;;;;22.30;42.50;;;;;;685658;28;1131;-87
2022/04/22 00:56:42;;;;;;;;;;;22.30;43.20;;;;;;685550;28;1108;-88
2022/04/22 00:57:02;;;;;;;;;;;22.40;43.00;;;;;;683173;29;1451;-87
2022/04/22 00:57:23;;;;;;;;;;;22.40;42.60;;;;;;680309;29;1316;-87
2022/04/22 00:57:44;;;;;;;;;;;22.40;42.60;;;;;;677831;29;1247;-87
2022/04/22 00:58:04;;;;;;;;;;;22.40;42.60;;;;;;678195;29;808;-87
2022/04/22 00:58:25;;;;;;;;;;;22.40;43.70;;;;;;680704;29;1358;-86
2022/04/22 00:58:46;;;;;;;;;;;22.30;42.30;;;;;;683399;28;879;-88
2022/04/22 00:59:07;;;;;;;;;;;22.40;42.10;;;;;;685957;28;847;-88
2022/04/22 00:59:28;;;;;;;;;;;22.40;42.10;;;;;;686230;28;867;-89
2022/04/22 00:59:49;;;;;;;;;;;22.30;42.00;;;;;;685766;28;1160;-88
2022/04/22 01:00:09;;;;;;;;;;;22.30;43.80;;;;;;686159;28;799;-89
2022/04/22 01:00:30;;;;;;;;;;;22.40;43.80;;;;;;688534;28;1069;-87
2022/04/22 01:00:50;;;;;;;;;;;22.30;42.60;;;;;;688432;28;1160;-90
2022/04/22 01:01:11;;;;;;;;;;;22.40;42.40;;;;;;688427;28;1213;-89
2022/04/22 01:01:33;;;;;;;;;;;22.30;44.00;;;;;;688693;28;1477;-88
2022/04/22 01:01:55;;;;;;;;;;;22.30;43.10;;;;;;688487;28;1291;-89
2022/04/22 01:02:16;;;;;;;;;;;22.30;42.40;;;;;;688548;28;977;-86
2022/04/22 01:02:36;;;;;;;;;;;22.30;44.00;;;;;;690429;28;1279;-88
2022/04/22 01:02:57;;;;;;;;;;;22.30;45.90;;;;;;688445;28;819;-89
2022/04/22 01:03:17;;;;;;;;;;;22.30;45.50;;;;;;688377;28;1390;-89
2022/04/22 01:03:38;;;;;;;;;;;22.30;43.60;;;;;;688521;28;867;-89
2022/04/22 01:09:52;;;;;;;;;;;22.30;42.30;;;;;;691571;28;613;-88
2022/04/22 01:10:13;;;;;;;;;;;22.30;43.90;;;;;;688319;28;1317;-89
2022/04/22 01:10:33;;;;;;;;;;;22.30;43.00;;;;;;688347;28;1312;-88
2022/04/22 01:10:54;;;;;;;;;;;22.30;43.10;;;;;;685752;28;1294;-88
2022/04/22 01:11:16;;;;;;;;;;;22.30;42.20;;;;;;685614;28;1493;-88
2022/04/22 01:11:39;;;;;;;;;;;24.80;43.30;;;;;;685595;28;1303;-88
2022/04/22 01:12:00;;;;;;;;;;;22.50;42.20;;;;;;686571;28;823;-86
2022/04/22 01:12:20;;;;;;;;;;;22.30;44.70;;;;;;684855;28;1230;-89
2022/04/22 01:12:41;;;;;;;;;;;22.30;42.80;;;;;;680258;29;1440;-89
2022/04/22 01:13:02;;;;;;;;;;;22.30;44.10;;;;;;678020;29;1317;-88
2022/04/22 01:13:23;;;;;;;;;;;22.30;45.00;;;;;;678225;29;1047;-89
2022/04/22 01:13:44;;;;;;;;;;;22.30;42.40;;;;;;680368;29;1145;-89
2022/04/22 01:14:05;;;;;;;;;;;22.30;42.40;;;;;;678256;29;1227;-90
2022/04/22 01:14:26;;;;;;;;;;;22.30;41.90;;;;;;681235;28;1349;-89
2022/04/22 01:14:47;;;;;;;;;;;22.30;42.10;;;;;;682556;29;1476;-89
2022/04/22 01:15:08;;;;;;;;;;;22.30;42.30;;;;;;680368;29;1312;-87
2022/04/22 01:15:29;;;;;;;;;;;22.30;42.60;;;;;;678494;29;943;-89
2022/04/22 01:15:49;;;;;;;;;;;22.30;41.90;;;;;;680426;29;808;-90
2022/04/22 01:16:10;;;;;;;;;;;22.30;43.00;;;;;;680979;29;1320;-89
2022/04/22 01:16:30;;;;;;;;;;;22.30;43.20;;;;;;680836;29;1242;-90
2022/04/22 01:16:51;;;;;;;;;;;23.90;43.40;;;;;;680506;29;1282;-89
2022/04/22 01:17:12;;;;;;;;;;;22.30;42.30;;;;;;678079;29;1254;-90
2022/04/22 01:17:32;;;;;;;;;;;22.30;42.90;;;;;;677842;29;1241;-88
2022/04/22 01:17:53;;;;;;;;;;;22.30;42.60;;;;;;680937;29;1265;-89
2022/04/22 01:18:14;;;;;;;;;;;22.30;42.40;;;;;;683489;28;1300;-90
2022/04/22 01:18:37;;;;;;;;;;;22.30;42.20;;;;;;685759;28;1379;-88
2022/04/22 01:18:57;;;;;;;;;;;22.30;43.00;;;;;;686484;28;863;-87
2022/04/22 01:19:18;;;;;;;;;;;22.30;42.70;;;;;;685101;28;1318;-87
2022/04/22 01:19:39;;;;;;;;;;;22.30;42.90;;;;;;683773;28;985;-87
2022/04/22 01:19:59;;;;;;;;;;;21.50;41.30;;;;;;686409;28;1297;-88
2022/04/22 01:20:20;;;;;;;;;;;22.30;42.80;;;;;;687901;28;846;-88
2022/04/22 01:20:40;;;;;;;;;;;22.30;42.20;;;;;;688099;28;788;-88
2022/04/22 01:21:01;;;;;;;;;;;22.30;43.40;;;;;;688808;28;1091;-88
2022/04/22 01:21:22;;;;;;;;;;;22.30;41.80;;;;;;691256;28;839;-90
2022/04/22 01:21:42;;;;;;;;;;;22.30;42.50;;;;;;688037;28;1271;-89
2022/04/22 01:22:04;;;;;;;;;;;22.30;43.20;;;;;;685665;28;1234;-90
2022/04/22 01:22:24;;;;;;;;;;;22.30;42.60;;;;;;685742;28;1230;-86
2022/04/22 01:22:45;;;;;;;;;;;22.30;43.80;;;;;;685621;28;1287;-89
2022/04/22 01:23:05;;;;;;;;;;;22.30;44.30;;;;;;685816;28;811;-88
2022/04/22 01:23:26;;;;;;;;;;;22.70;44.60;;;;;;685659;28;1068;-88
2022/04/22 01:23:47;;;;;;;;;;;22.20;43.80;;;;;;683057;29;1176;-89
2022/04/22 01:24:07;;;;;;;;;;;20.40;41.70;;;;;;682902;29;1222;-89
2022/04/22 01:24:28;;;;;;;;;;;22.30;43.50;;;;;;684063;28;834;-90
2022/04/22 01:24:52;;;;;;;;;;;22.30;42.00;;;;;;685744;28;1214;-90
2022/04/22 01:25:12;;;;;;;;;;;22.30;42.80;;;;;;685450;28;1193;-91
2022/04/22 01:25:33;;;;;;;;;;;22.30;42.80;;;;;;683847;28;1113;-88
2022/04/22 01:25:55;;;;;;;;;;;22.30;42.30;;;;;;685005;28;1076;-86
2022/04/22 01:26:16;;;;;;;;;;;22.30;41.90;;;;;;682985;29;1297;-88
2022/04/22 01:26:37;;;;;;;;;;;22.30;42.30;;;;;;683130;29;767;-90
2022/04/22 01:26:57;;;;;;;;;;;22.30;42.40;;;;;;683144;29;1210;-88
2022/04/22 01:27:18;;;;;;;;;;;22.30;42.40;;;;;;683152;29;1304;-89
2022/04/22 01:27:39;;;;;;;;;;;22.30;42.20;;;;;;685283;28;823;-89
2022/04/22 01:28:00;;;;;;;;;;;22.30;42.30;;;;;;685752;28;1914;-88
2022/04/22 01:28:23;;;;;;;;;;;22.50;42.20;;;;;;685623;28;1150;-88
2022/04/22 01:28:43;;;;;;;;;;;22.30;41.90;;;;;;683005;29;1175;-90
2022/04/22 01:29:05;;;;;;;;;;;22.30;42.50;;;;;;681144;29;1246;-87
2022/04/22 01:29:25;;;;;;;;;;;22.30;41.80;;;;;;680665;29;1373;-87
2022/04/22 01:29:46;;;;;;;;;;;24.20;43.10;;;;;;682292;29;1210;-88
2022/04/22 01:30:07;;;;;;;;;;;20.30;42.70;;;;;;683099;29;1342;-89
2022/04/22 01:30:27;;;;;;;;;;;19.40;40.50;;;;;;681990;28;1169;-90
2022/04/22 01:30:48;;;;;;;;;;;22.30;42.30;;;;;;682967;29;1149;-89
2022/04/22 01:31:09;;;;;;;;;;;22.30;42.10;;;;;;680584;29;1199;-88
2022/04/22 01:31:29;;;;;;;;;;;22.30;42.60;;;;;;678046;29;1307;-85
2022/04/22 01:31:50;;;;;;;;;;;22.30;42.00;;;;;;680482;29;862;-87
2022/04/22 01:32:10;;;;;;;;;;;22.30;42.90;;;;;;680846;29;795;-89
2022/04/22 01:32:31;;;;;;;;;;;22.30;43.00;;;;;;683033;29;887;-87
2022/04/22 01:32:54;;;;;;;;;;;22.30;42.30;;;;;;680399;29;1171;-88
2022/04/22 01:33:14;;;;;;;;;;;22.30;41.80;;;;;;683778;28;1329;-89
2022/04/22 01:33:35;;;;;;;;;;;22.30;42.80;;;;;;687309;28;1341;-89
2022/04/22 01:33:56;;;;;;;;;;;22.30;45.10;;;;;;688596;28;1310;-90
2022/04/22 01:34:16;;;;;;;;;;;22.30;42.90;;;;;;688343;28;1213;-89
2022/04/22 01:34:38;;;;;;;;;;;22.30;42.30;;;;;;688991;28;988;-88
2022/04/22 01:34:59;;;;;;;;;;;22.30;42.60;;;;;;687833;28;1202;-87
2022/04/22 01:35:20;;;;;;;;;;;22.30;42.90;;;;;;682958;29;1216;-85
2022/04/22 01:35:40;;;;;;;;;;;22.20;42.70;;;;;;682508;29;1245;-89
2022/04/22 01:36:01;;;;;;;;;;;22.20;43.70;;;;;;680834;29;1306;-88
2022/04/22 01:36:22;;;;;;;;;;;22.30;44.10;;;;;;683127;29;1204;-89
2022/04/22 01:36:43;;;;;;;;;;;22.30;43.30;;;;;;683332;28;1264;-89
2022/04/22 01:37:03;;;;;;;;;;;22.30;42.30;;;;;;685665;28;1148;-87
2022/04/22 01:37:24;;;;;;;;;;;22.30;42.10;;;;;;683030;28;1130;-86
2022/04/22 01:37:45;;;;;;;;;;;22.30;42.60;;;;;;685468;28;937;-88
2022/04/22 01:38:05;;;;;;;;;;;22.30;43.10;;;;;;683109;29;835;-87
2022/04/22 01:38:26;;;;;;;;;;;22.30;42.30;;;;;;685669;28;1210;-88
2022/04/22 01:38:47;;;;;;;;;;;22.30;42.80;;;;;;683184;28;1200;-89
2022/04/22 01:39:08;;;;;;;;;;;22.30;44.50;;;;;;686016;28;1459;-87
2022/04/22 01:39:30;;;;;;;;;;;22.40;45.30;;;;;;688491;28;849;-89
2022/04/22 01:39:50;;;;;;;;;;;22.30;43.60;;;;;;685783;28;1197;-87
2022/04/22 01:40:11;;;;;;;;;;;22.30;42.70;;;;;;685281;28;1216;-89
2022/04/22 01:40:32;;;;;;;;;;;22.30;41.90;;;;;;684210;28;1255;-88
2022/04/22 01:40:54;;;;;;;;;;;22.30;42.20;;;;;;682899;29;1351;-88
2022/04/22 01:41:15;;;;;;;;;;;22.30;42.20;;;;;;683008;29;1304;-88
2022/04/22 01:41:35;;;;;;;;;;;22.30;43.60;;;;;;680961;29;1266;-87
2022/04/22 01:41:56;;;;;;;;;;;22.30;43.10;;;;;;682989;29;1198;-88
2022/04/22 01:42:18;;;;;;;;;;;22.30;42.60;;;;;;683030;29;882;-87
2022/04/22 01:42:39;;;;;;;;;;;22.30;42.60;;;;;;683698;28;1442;-90
2022/04/22 01:42:59;;;;;;;;;;;22.30;42.60;;;;;;682362;29;1287;-87
2022/04/22 01:43:20;;;;;;;;;;;22.30;43.00;;;;;;680276;29;1225;-87
2022/04/22 01:43:41;;;;;;;;;;;22.30;42.30;;;;;;683246;28;1211;-88
2022/04/22 01:44:02;;;;;;;;;;;22.30;42.00;;;;;;685497;28;1209;-87
2022/04/22 01:44:22;;;;;;;;;;;22.30;42.00;;;;;;685605;28;997;-86
2022/04/22 01:44:43;;;;;;;;;;;22.30;42.00;;;;;;683085;29;1289;-86
2022/04/22 01:45:04;;;;;;;;;;;22.30;42.40;;;;;;680235;29;1215;-86
2022/04/22 01:45:25;;;;;;;;;;;22.30;41.70;;;;;;680308;29;1370;-87
2022/04/22 01:45:45;;;;;;;;;;;22.30;42.90;;;;;;678177;29;1273;-87
2022/04/22 01:46:06;;;;;;;;;;;22.30;42.50;;;;;;680236;29;1265;-89
2022/04/22 01:46:26;;;;;;;;;;;22.30;43.30;;;;;;680746;29;1079;-88
2022/04/22 01:46:47;;;;;;;;;;;22.30;42.30;;;;;;683013;29;1246;-90
2022/04/22 01:47:07;;;;;;;;;;;22.40;42.50;;;;;;682630;29;1175;-87
2022/04/22 01:47:29;;;;;;;;;;;22.30;44.90;;;;;;680535;29;1246;-87
2022/04/22 01:47:50;;;;;;;;;;;22.30;43.00;;;;;;680288;29;1974;-89
2022/04/22 01:48:10;;;;;;;;;;;22.30;42.90;;;;;;680603;29;1116;-89
2022/04/22 01:48:31;;;;;;;;;;;22.30;43.90;;;;;;680293;29;1374;-88
2022/04/22 01:48:52;;;;;;;;;;;21.50;41.90;;;;;;680873;29;1284;-88
2022/04/22 01:49:13;;;;;;;;;;;22.30;42.70;;;;;;683429;28;1305;-87
2022/04/22 01:49:33;;;;;;;;;;;22.40;42.10;;;;;;686113;28;788;-84
2022/04/22 01:49:54;;;;;;;;;;;22.30;42.60;;;;;;685658;28;954;-86
2022/04/22 01:50:14;;;;;;;;;;;22.40;42.20;;;;;;685622;28;826;-87
2022/04/22 01:50:35;;;;;;;;;;;22.40;42.10;;;;;;685773;28;763;-88
2022/04/22 01:50:56;;;;;;;;;;;22.40;42.20;;;;;;683119;28;1131;-88
2022/04/22 01:51:16;;;;;;;;;;;22.30;43.60;;;;;;682512;29;1333;-89
2022/04/22 01:51:37;;;;;;;;;;;22.40;42.10;;;;;;682924;29;1307;-87
2022/04/22 01:51:58;;;;;;;;;;;22.30;41.60;;;;;;680379;29;1405;-87
2022/04/22 01:52:19;;;;;;;;;;;22.40;41.90;;;;;;680263;29;1378;-86
2022/04/22 01:52:41;;;;;;;;;;;22.40;42.70;;;;;;680856;29;823;-88
2022/04/22 01:53:01;;;;;;;;;;;22.30;42.20;;;;;;683051;29;835;-88
2022/04/22 01:53:22;;;;;;;;;;;22.40;42.10;;;;;;683507;28;1412;-89
2022/04/22 01:53:43;;;;;;;;;;;22.40;42.60;;;;;;680230;29;1263;-88
2022/04/22 01:54:04;;;;;;;;;;;22.40;42.00;;;;;;677815;29;1300;-88
2022/04/22 01:54:24;;;;;;;;;;;22.40;41.80;;;;;;675243;29;1480;-88
2022/04/22 01:54:45;;;;;;;;;;;22.40;42.10;;;;;;677820;29;1579;-88
2022/04/22 01:55:05;;;;;;;;;;;22.30;42.50;;;;;;677935;29;1192;-88
2022/04/22 01:55:28;;;;;;;;;;;22.40;43.20;;;;;;683051;29;1261;-89
2022/04/22 01:55:49;;;;;;;;;;;22.40;42.50;;;;;;680937;29;1096;-86
2022/04/22 01:56:09;;;;;;;;;;;22.40;43.00;;;;;;683578;28;827;-87
2022/04/22 01:56:30;;;;;;;;;;;22.30;42.40;;;;;;685206;28;969;-88
2022/04/22 01:56:51;;;;;;;;;;;22.40;43.40;;;;;;680943;29;1227;-87
2022/04/22 01:57:11;;;;;;;;;;;22.40;42.70;;;;;;680349;29;1140;-86
2022/04/22 01:57:32;;;;;;;;;;;22.40;44.40;;;;;;680677;29;863;-87
2022/04/22 01:57:53;;;;;;;;;;;22.40;43.60;;;;;;682922;28;1363;-89
2022/04/22 01:58:14;;;;;;;;;;;22.40;43.00;;;;;;682506;29;1246;-85
2022/04/22 01:58:35;;;;;;;;;;;22.40;42.10;;;;;;683274;28;1323;-88
2022/04/22 01:58:55;;;;;;;;;;;22.40;43.10;;;;;;686048;28;1277;-87
2022/04/22 01:59:16;;;;;;;;;;;22.40;42.80;;;;;;688304;28;921;-89
2022/04/22 01:59:36;;;;;;;;;;;22.40;42.60;;;;;;688049;28;1225;-89
2022/04/22 01:59:59;;;;;;;;;;;22.40;42.10;;;;;;688035;28;1209;-89
2022/04/22 02:00:21;;;;;;;;;;;22.40;43.10;;;;;;688170;28;1257;-87
2022/04/22 02:00:41;;;;;;;;;;;22.40;41.60;;;;;;685696;28;1237;-88
2022/04/22 02:01:02;;;;;;;;;;;22.40;41.70;;;;;;682980;29;1194;-88
2022/04/22 02:01:23;;;;;;;;;;;22.40;42.00;;;;;;680219;29;816;-89
2022/04/22 02:01:43;;;;;;;;;;;22.40;42.60;;;;;;679758;29;811;-88
2022/04/22 02:02:04;;;;;;;;;;;22.40;44.20;;;;;;678145;29;799;-89
2022/04/22 02:02:24;;;;;;;;;;;22.40;42.00;;;;;;678039;29;1325;-89
2022/04/22 02:02:45;;;;;;;;;;;22.40;44.80;;;;;;677853;29;1312;-88
2022/04/22 02:03:06;;;;;;;;;;;22.40;43.00;;;;;;677666;29;1299;-88
2022/04/22 02:03:26;;;;;;;;;;;22.40;42.80;;;;;;675493;29;1330;-86
2022/04/22 02:03:47;;;;;;;;;;;22.40;43.20;;;;;;677777;29;1461;-88
2022/04/22 02:04:07;;;;;;;;;;;22.40;42.50;;;;;;677962;29;911;-89
2022/04/22 02:04:28;;;;;;;;;;;20.00;41.10;;;;;;677982;29;1312;-88
2022/04/22 02:04:48;;;;;;;;;;;22.40;42.50;;;;;;677906;29;1317;-88
2022/04/22 02:05:09;;;;;;;;;;;22.40;44.60;;;;;;677957;29;1214;-89
2022/04/22 02:05:30;;;;;;;;;;;22.40;44.10;;;;;;680061;29;1308;-88
2022/04/22 02:05:50;;;;;;;;;;;22.40;43.20;;;;;;680421;29;808;-88
2022/04/22 02:06:11;;;;;;;;;;;22.40;42.70;;;;;;680532;29;812;-88
2022/04/22 02:06:32;;;;;;;;;;;22.40;41.70;;;;;;683140;28;1246;-89
2022/04/22 02:06:53;;;;;;;;;;;22.40;42.10;;;;;;685503;28;1480;-88
2022/04/22 02:07:13;;;;;;;;;;;22.40;42.00;;;;;;685546;28;1324;-88
2022/04/22 02:07:34;;;;;;;;;;;22.40;43.10;;;;;;683058;28;1206;-87
2022/04/22 02:07:54;;;;;;;;;;;22.40;42.10;;;;;;682983;29;1983;-88
2022/04/22 02:08:15;;;;;;;;;;;22.40;42.90;;;;;;682852;29;1200;-89
2022/04/22 02:08:36;;;;;;;;;;;22.40;41.80;;;;;;683487;28;827;-86
2022/04/22 02:08:57;;;;;;;;;;;22.40;42.00;;;;;;685819;28;815;-88
2022/04/22 02:09:17;;;;;;;;;;;22.40;41.80;;;;;;686014;28;1093;-87
2022/04/22 02:09:39;;;;;;;;;;;22.40;42.10;;;;;;685325;28;1395;-88
2022/04/22 02:10:00;;;;;;;;;;;22.40;42.00;;;;;;683534;28;1252;-86
2022/04/22 02:10:20;;;;;;;;;;;22.40;44.00;;;;;;682646;28;1332;-87
2022/04/22 02:10:41;;;;;;;;;;;22.40;43.40;;;;;;683068;29;1324;-87
2022/04/22 02:11:02;;;;;;;;;;;22.40;42.00;;;;;;682896;29;1241;-86
2022/04/22 02:11:23;;;;;;;;;;;22.40;42.00;;;;;;680251;29;1196;-87
2022/04/22 02:11:43;;;;;;;;;;;22.40;41.70;;;;;;678078;29;1237;-87
2022/04/22 02:12:04;;;;;;;;;;;22.40;42.30;;;;;;680787;29;799;-90